createdAt,value
2022-12-11T00:01:52.913Z,98281.91
2022-12-11T00:04:55.660Z,98274.00
2022-12-11T00:07:58.964Z,98244.53
2022-12-11T00:11:02.304Z,98269.72
2022-12-11T00:14:04.635Z,98262.66
2022-12-11T00:17:07.381Z,98251.69
2022-12-11T00:20:10.184Z,98239.59
2022-12-11T00:23:12.921Z,98254.75
2022-12-11T00:26:16.261Z,98252.03
2022-12-11T00:29:18.855Z,98265.66
2022-12-11T00:32:21.142Z,98217.56
2022-12-11T00:35:23.724Z,98263.87
2022-12-11T00:38:26.073Z,98264.31
2022-12-11T00:41:28.752Z,98234.41
2022-12-11T00:44:31.088Z,98218.06
2022-12-11T00:47:33.607Z,98246.66
2022-12-11T00:50:36.745Z,98257.56
2022-12-11T00:53:39.422Z,98218.19
2022-12-11T00:56:41.911Z,98243.44
2022-12-11T00:59:44.504Z,98250.75
2022-12-11T01:02:46.892Z,98255.97
2022-12-11T01:05:54.703Z,98252.31
2022-12-11T01:09:16.245Z,98248.47
2022-12-11T01:12:18.848Z,98237.91
2022-12-11T01:15:23.180Z,98224.22
2022-12-11T01:18:26.356Z,98258.25
2022-12-11T01:21:31.186Z,98276.97
2022-12-11T01:24:33.878Z,98266.44
2022-12-11T01:27:37.184Z,98264.84
2022-12-11T01:30:43.159Z,98241.06
2022-12-11T01:33:47.195Z,98272.09
2022-12-11T01:36:52.564Z,98273.28
2022-12-11T01:39:54.953Z,98281.22
2022-12-11T01:42:57.542Z,98279.22
2022-12-11T01:46:00.130Z,98276.28
2022-12-11T01:49:06.489Z,98271.50
2022-12-11T01:52:16.653Z,98268.25
2022-12-11T01:55:20.662Z,98270.41
2022-12-11T01:58:27.614Z,98266.34
2022-12-11T02:01:40.589Z,98288.38
2022-12-11T02:04:44.784Z,98271.84
2022-12-11T02:07:55.525Z,98286.16
2022-12-11T02:11:27.027Z,98289.13
2022-12-11T02:14:43.440Z,98290.59
2022-12-11T02:17:48.802Z,98257.34
2022-12-11T02:21:10.999Z,98280.25
2022-12-11T02:24:57.662Z,98273.69
2022-12-11T02:28:24.815Z,98288.31
2022-12-11T02:31:34.920Z,98284.72
2022-12-11T02:34:44.886Z,98285.28
2022-12-11T02:37:51.320Z,98292.06
2022-12-11T02:41:00.357Z,98282.78
2022-12-11T02:44:05.223Z,98280.50
2022-12-11T02:47:13.031Z,98278.03
2022-12-11T02:50:19.624Z,98275.53
2022-12-11T02:53:26.185Z,98284.59
2022-12-11T02:56:46.544Z,98257.38
2022-12-11T02:59:49.661Z,98255.34
2022-12-11T03:02:53.695Z,98256.47
2022-12-11T03:05:57.037Z,98262.13
2022-12-11T03:08:59.472Z,98271.22
2022-12-11T03:12:02.320Z,98263.75
2022-12-11T03:15:08.927Z,98249.69
2022-12-11T03:18:55.303Z,98255.56
2022-12-11T03:22:23.900Z,98271.66
2022-12-11T03:25:36.065Z,98258.75
2022-12-11T03:28:56.486Z,98259.88
2022-12-11T03:32:11.389Z,98260.31
2022-12-11T03:35:21.626Z,98272.56
2022-12-11T03:38:39.354Z,98262.34
2022-12-11T03:41:44.753Z,98245.12
2022-12-11T03:44:50.686Z,98251.47
2022-12-11T03:47:55.183Z,98228.69
2022-12-11T03:50:59.518Z,98260.66
2022-12-11T03:54:03.010Z,98260.22
2022-12-11T03:57:06.821Z,98261.69
2022-12-11T04:00:12.496Z,98216.31
2022-12-11T04:03:16.003Z,98259.50
2022-12-11T04:06:20.218Z,98266.88
2022-12-11T04:09:22.802Z,98247.72
2022-12-11T04:12:25.083Z,98236.47
2022-12-11T04:15:27.625Z,98276.72
2022-12-11T04:18:48.387Z,98269.59
2022-12-11T04:22:09.898Z,98270.41
2022-12-11T04:25:12.274Z,98257.56
2022-12-11T04:28:15.032Z,98277.84
2022-12-11T04:31:20.268Z,98279.78
2022-12-11T04:34:22.965Z,98286.09
2022-12-11T04:37:25.398Z,98260.00
2022-12-11T04:40:27.993Z,98295.50
2022-12-11T04:43:30.513Z,98285.37
2022-12-11T04:46:35.692Z,98265.84
2022-12-11T04:49:38.313Z,98310.50
2022-12-11T04:52:41.071Z,98303.25
2022-12-11T04:55:43.388Z,98324.59
2022-12-11T04:58:48.528Z,98290.50
2022-12-11T05:01:50.967Z,98300.94
2022-12-11T05:04:53.604Z,98329.38
2022-12-11T05:07:55.941Z,98320.34
2022-12-11T05:11:00.592Z,98340.91
2022-12-11T05:14:02.814Z,98327.13
2022-12-11T05:17:05.335Z,98330.19
2022-12-11T05:20:08.223Z,98350.19
2022-12-11T05:23:10.776Z,98353.25
2022-12-11T05:26:20.051Z,98316.00
2022-12-11T05:29:22.639Z,98356.03
2022-12-11T05:32:24.935Z,98355.09
2022-12-11T05:35:27.587Z,98338.34
2022-12-11T05:38:31.016Z,98358.28
2022-12-11T05:41:33.805Z,98296.50
2022-12-11T05:44:36.186Z,98368.31
2022-12-11T05:47:38.970Z,98349.47
2022-12-11T05:50:41.268Z,98328.56
2022-12-11T05:53:45.231Z,98317.91
2022-12-11T05:56:51.367Z,98335.88
2022-12-11T05:59:53.957Z,98361.59
2022-12-11T06:02:56.500Z,98346.28
2022-12-11T06:06:03.143Z,98358.09
2022-12-11T06:09:06.335Z,98340.31
2022-12-11T06:12:09.016Z,98380.81
2022-12-11T06:15:11.554Z,98361.47
2022-12-11T06:18:14.495Z,98394.09
2022-12-11T06:21:20.432Z,98373.12
2022-12-11T06:24:22.945Z,98402.97
2022-12-11T06:27:25.254Z,98418.78
2022-12-11T06:30:38.257Z,98404.94
2022-12-11T06:33:41.953Z,98392.37
2022-12-11T06:36:44.756Z,98431.50
2022-12-11T06:39:47.031Z,98416.22
2022-12-11T06:42:49.570Z,98452.00
2022-12-11T06:45:52.834Z,98420.94
2022-12-11T06:48:55.889Z,98453.63
2022-12-11T06:51:58.594Z,98458.41
2022-12-11T06:55:01.150Z,98424.88
2022-12-11T06:58:04.150Z,98465.66
2022-12-11T07:01:16.034Z,98473.81
2022-12-11T07:04:18.349Z,98476.31
2022-12-11T07:07:20.898Z,98463.78
2022-12-11T07:10:24.122Z,98485.09
2022-12-11T07:13:26.703Z,98485.34
2022-12-11T07:16:29.087Z,98465.97
2022-12-11T07:19:31.667Z,98466.97
2022-12-11T07:22:34.089Z,98498.87
2022-12-11T07:25:37.390Z,98473.66
2022-12-11T07:28:40.179Z,98503.16
2022-12-11T07:31:43.050Z,98512.56
2022-12-11T07:34:51.408Z,98483.87
2022-12-11T07:37:54.750Z,98491.59
2022-12-11T07:41:00.335Z,98508.59
2022-12-11T07:44:03.971Z,98506.66
2022-12-11T07:47:06.216Z,98506.47
2022-12-11T07:50:09.133Z,98543.25
2022-12-11T07:53:11.407Z,98541.25
2022-12-11T07:56:16.008Z,98540.69
2022-12-11T07:59:18.218Z,98500.78
2022-12-11T08:02:20.769Z,98566.34
2022-12-11T08:05:23.327Z,98586.78
2022-12-11T08:08:25.596Z,98575.13
2022-12-11T08:11:28.343Z,98568.87
2022-12-11T08:14:30.613Z,98571.25
2022-12-11T08:17:39.717Z,98593.47
2022-12-11T08:20:42.343Z,98592.22
2022-12-11T08:23:46.948Z,98556.03
2022-12-11T08:26:49.363Z,98585.31
2022-12-11T08:29:51.933Z,98567.94
2022-12-11T08:32:54.175Z,98574.94
2022-12-11T08:35:56.968Z,98580.94
2022-12-11T08:38:59.279Z,98617.53
2022-12-11T08:42:01.862Z,98593.13
2022-12-11T08:45:04.887Z,98634.31
2022-12-11T08:48:07.450Z,98625.59
2022-12-11T08:51:13.934Z,98618.31
2022-12-11T08:54:16.573Z,98649.06
2022-12-11T08:57:18.979Z,98665.75
2022-12-11T09:00:21.729Z,98674.28
2022-12-11T09:03:24.801Z,98600.56
2022-12-11T09:06:29.736Z,98677.13
2022-12-11T09:09:31.967Z,98649.69
2022-12-11T09:12:35.210Z,98654.75
2022-12-11T09:15:40.621Z,98649.50
2022-12-11T09:18:46.491Z,98651.75
2022-12-11T09:21:48.817Z,98651.37
2022-12-11T09:24:51.397Z,98638.16
2022-12-11T09:27:53.746Z,98657.78
2022-12-11T09:30:56.338Z,98667.47
2022-12-11T09:34:08.575Z,98676.91
2022-12-11T09:37:11.517Z,98665.56
2022-12-11T09:40:14.124Z,98659.66
2022-12-11T09:43:36.321Z,98652.03
2022-12-11T09:46:40.587Z,98678.06
2022-12-11T09:49:45.481Z,98665.25
2022-12-11T09:52:47.710Z,98674.06
2022-12-11T09:56:15.244Z,98684.59
2022-12-11T09:59:36.932Z,98674.37
2022-12-11T10:03:16.290Z,98667.06
2022-12-11T10:06:31.876Z,98654.22
2022-12-11T10:09:58.872Z,98660.56
2022-12-11T10:13:23.219Z,98648.25
2022-12-11T10:16:39.086Z,98647.72
2022-12-11T10:19:42.318Z,98652.34
2022-12-11T10:22:46.466Z,98630.84
2022-12-11T10:25:58.629Z,98647.81
2022-12-11T10:29:01.613Z,98640.00
2022-12-11T10:32:11.579Z,98672.41
2022-12-11T10:35:31.304Z,98688.25
2022-12-11T10:38:39.311Z,98682.78
2022-12-11T10:41:46.008Z,98665.66
2022-12-11T10:45:02.818Z,98667.13
2022-12-11T10:48:10.574Z,98670.31
2022-12-11T10:51:14.318Z,98692.72
2022-12-11T10:54:27.230Z,98677.28
2022-12-11T10:57:32.698Z,98712.13
2022-12-11T11:00:38.460Z,98703.84
2022-12-11T11:04:04.824Z,98709.56
2022-12-11T11:07:27.162Z,98700.78
2022-12-11T11:10:34.315Z,98713.44
2022-12-11T11:13:39.447Z,98706.53
2022-12-11T11:16:47.026Z,98703.78
2022-12-11T11:19:51.419Z,98696.72
2022-12-11T11:23:01.827Z,98695.25
2022-12-11T11:26:09.112Z,98696.72
2022-12-11T11:29:26.326Z,98659.25
2022-12-11T11:32:39.951Z,98687.84
2022-12-11T11:35:55.996Z,98652.50
2022-12-11T11:39:26.291Z,98699.16
2022-12-11T11:43:00.876Z,98711.75
2022-12-11T11:46:10.742Z,98691.72
2022-12-11T11:49:27.287Z,98721.59
2022-12-11T11:53:00.488Z,98722.91
2022-12-11T11:56:26.442Z,98713.87
2022-12-11T11:59:42.620Z,98731.25
2022-12-11T12:02:47.245Z,98740.03
2022-12-11T12:06:14.745Z,98712.91
2022-12-11T12:09:48.848Z,98736.69
2022-12-11T12:13:44.348Z,98753.59
2022-12-11T12:16:56.726Z,98744.25
2022-12-11T12:20:09.394Z,98760.66
2022-12-11T12:23:36.945Z,98766.09
2022-12-11T12:27:50.046Z,98739.41
2022-12-11T12:30:54.996Z,98764.50
2022-12-11T12:34:06.563Z,98734.31
2022-12-11T12:37:26.567Z,98759.06
2022-12-11T12:41:19.612Z,98755.69
2022-12-11T12:44:24.761Z,98763.69
2022-12-11T12:47:30.871Z,98762.44
2022-12-11T12:50:42.283Z,98759.72
2022-12-11T12:53:53.308Z,98747.59
2022-12-11T12:56:58.608Z,98773.13
2022-12-11T13:00:01.546Z,98772.84
2022-12-11T13:03:36.219Z,98758.69
2022-12-11T13:06:45.993Z,98804.09
2022-12-11T13:10:34.669Z,98812.28
2022-12-11T13:13:40.831Z,98828.16
2022-12-11T13:16:45.497Z,98796.34
2022-12-11T13:19:49.945Z,98822.69
2022-12-11T13:23:27.818Z,98823.16
2022-12-11T13:26:34.438Z,98820.22
2022-12-11T13:29:44.408Z,98848.66
2022-12-11T13:33:19.503Z,98835.34
2022-12-11T13:36:38.776Z,98795.41
2022-12-11T13:43:20.614Z,98818.44
2022-12-11T13:46:35.594Z,98847.34
2022-12-11T13:49:41.387Z,98842.56
2022-12-11T13:52:57.051Z,98861.28
2022-12-11T13:56:05.747Z,98859.66
2022-12-11T13:59:32.867Z,98856.47
2022-12-11T14:02:40.366Z,98862.88
2022-12-11T14:05:45.586Z,98863.22
2022-12-11T14:08:58.318Z,98871.38
2022-12-11T14:12:06.430Z,98877.00
2022-12-11T14:15:14.786Z,98894.31
2022-12-11T14:18:26.191Z,98890.16
2022-12-11T14:21:32.600Z,98899.59
2022-12-11T14:25:17.646Z,98837.41
2022-12-11T14:31:56.406Z,98919.63
2022-12-11T14:35:17.250Z,98908.59
2022-12-11T14:38:40.665Z,98928.91
2022-12-11T14:41:57.369Z,98928.13
2022-12-11T14:45:26.863Z,98924.13
2022-12-11T15:07:30.381Z,98949.25
2022-12-11T15:49:18.651Z,98989.03
2022-12-11T16:13:05.535Z,99008.53
2022-12-11T16:16:10.657Z,98995.41
2022-12-11T16:19:18.510Z,98981.47
2022-12-11T16:22:21.448Z,99007.44
2022-12-11T16:25:37.804Z,99002.00
2022-12-11T16:28:49.461Z,99008.53
2022-12-11T16:31:57.599Z,98976.47
2022-12-11T16:35:02.925Z,99004.34
2022-12-11T16:38:24.881Z,99009.59
2022-12-11T16:41:32.849Z,99008.84
2022-12-11T16:44:42.504Z,98995.66
2022-12-11T16:51:19.129Z,99022.53
2022-12-11T16:54:35.229Z,99014.19
2022-12-11T16:57:44.106Z,99027.19
2022-12-11T17:00:56.608Z,99000.13
2022-12-11T17:04:05.723Z,98904.28
2022-12-11T17:10:47.803Z,99022.19
2022-12-11T17:14:01.140Z,99024.28
2022-12-11T17:17:14.388Z,99022.19
2022-12-11T17:20:20.740Z,99019.31
2022-12-11T17:23:26.601Z,98928.56
2022-12-11T17:26:37.205Z,98978.72
2022-12-11T17:29:45.285Z,99018.78
2022-12-11T17:32:52.890Z,99005.78
2022-12-11T17:36:05.827Z,99018.47
2022-12-11T17:39:23.835Z,99042.59
2022-12-11T17:42:28.451Z,98995.37
2022-12-11T17:45:47.098Z,98999.06
2022-12-11T17:48:56.061Z,99033.16
2022-12-11T17:51:59.681Z,99035.56
2022-12-11T17:55:07.175Z,99048.94
2022-12-11T17:58:14.461Z,98986.19
2022-12-11T18:01:22.211Z,99019.69
2022-12-11T18:04:25.472Z,99031.03
2022-12-11T18:07:31.736Z,99042.28
2022-12-11T18:10:40.694Z,99017.09
2022-12-11T18:13:45.679Z,99039.66
2022-12-11T18:16:52.637Z,99052.12
2022-12-11T18:19:55.494Z,99047.94
2022-12-11T18:23:06.517Z,98996.03
2022-12-11T18:26:18.674Z,99058.19
2022-12-11T18:29:26.688Z,99061.41
2022-12-11T18:32:38.320Z,99057.56
2022-12-11T18:35:42.548Z,99059.31
2022-12-11T18:38:48.978Z,99066.66
2022-12-11T18:42:30.591Z,99074.00
2022-12-11T18:45:19.275Z,99077.34
2022-12-11T18:48:37.015Z,99071.72
2022-12-11T18:51:42.351Z,98984.94
2022-12-11T18:54:46.004Z,99005.50
2022-12-11T18:57:49.877Z,99076.09
2022-12-11T19:01:27.169Z,99074.50
2022-12-11T19:04:31.344Z,99015.59
2022-12-11T19:07:36.933Z,99086.78
2022-12-11T19:10:47.242Z,99107.34
2022-12-11T19:17:34.583Z,99099.13
2022-12-11T19:21:08.576Z,99098.81
2022-12-11T19:24:16.143Z,99103.63
2022-12-11T19:27:20.225Z,99103.34
2022-12-11T19:30:23.877Z,99111.69
2022-12-11T19:33:31.886Z,99106.88
2022-12-11T19:36:37.436Z,99098.94
2022-12-11T19:39:45.669Z,99083.72
2022-12-11T19:42:52.902Z,99104.56
2022-12-11T19:46:01.974Z,98984.72
2022-12-11T19:49:06.755Z,99110.94
2022-12-11T19:52:10.984Z,99113.94
2022-12-11T19:55:16.288Z,99004.16
2022-12-11T19:58:21.291Z,99108.72
2022-12-11T20:01:31.725Z,99077.16
2022-12-11T20:04:58.595Z,99124.31
2022-12-11T20:08:42.970Z,99072.16
2022-12-11T20:12:16.259Z,99128.81
2022-12-11T20:15:55.239Z,99088.28
2022-12-11T20:23:05.021Z,99125.13
2022-12-11T20:30:28.108Z,99131.78
2022-12-11T20:33:53.793Z,99130.69
2022-12-11T20:37:24.794Z,99136.22
2022-12-11T20:44:54.257Z,99108.06
2022-12-11T20:48:05.658Z,99134.84
2022-12-11T20:51:32.382Z,99156.56
2022-12-11T20:54:54.249Z,99144.31
2022-12-11T20:58:01.828Z,99119.63
2022-12-11T21:01:16.389Z,99141.28
2022-12-11T21:04:46.667Z,99105.34
2022-12-11T21:08:07.843Z,99156.56
2022-12-11T21:11:31.515Z,99146.22
2022-12-11T21:15:00.698Z,99155.34
2022-12-11T21:18:24.638Z,99150.03
2022-12-11T21:33:15.317Z,99197.00
2022-12-11T21:36:31.807Z,99197.00
2022-12-11T21:40:06.739Z,99158.84
2022-12-11T21:43:28.647Z,99205.25
2022-12-11T21:46:37.449Z,99201.25
2022-12-11T21:49:52.167Z,99212.69
2022-12-11T21:53:19.859Z,99160.75
2022-12-11T21:56:40.691Z,99172.50
2022-12-11T22:00:00.712Z,99198.31
2022-12-11T22:03:21.800Z,99208.97
2022-12-11T22:13:38.040Z,99104.44
2022-12-11T22:17:21.439Z,99217.53
2022-12-11T22:21:00.151Z,99236.00
2022-12-11T22:24:12.183Z,99128.56
2022-12-11T22:27:24.192Z,99219.72
2022-12-11T22:30:35.599Z,99119.19
2022-12-11T22:33:48.954Z,99217.59
2022-12-11T22:37:07.938Z,99159.84
2022-12-11T22:40:25.293Z,99127.50
2022-12-11T22:43:38.972Z,99205.28
2022-12-11T22:47:03.360Z,99116.47
2022-12-11T22:50:09.429Z,99210.06
2022-12-11T22:53:20.195Z,99222.91
2022-12-11T22:56:27.486Z,99226.97
2022-12-11T22:59:31.559Z,99235.00
2022-12-11T23:02:48.139Z,99224.31
2022-12-11T23:06:05.284Z,99223.13
2022-12-11T23:09:09.368Z,99115.81
2022-12-11T23:12:16.320Z,99228.53
2022-12-11T23:15:20.257Z,99248.13
2022-12-11T23:18:34.133Z,99257.38
2022-12-11T23:21:42.787Z,99254.66
2022-12-11T23:24:51.873Z,99237.09
2022-12-11T23:28:00.326Z,99192.28
2022-12-11T23:31:15.118Z,99240.78
2022-12-11T23:34:20.670Z,99233.75
2022-12-11T23:37:26.494Z,99228.16
2022-12-11T23:40:53.671Z,99241.81
2022-12-11T23:43:59.011Z,99239.59
2022-12-11T23:47:05.722Z,99229.72
2022-12-11T23:50:09.386Z,99194.34
2022-12-11T23:53:13.769Z,99204.69
2022-12-11T23:56:22.608Z,99232.66
2022-12-11T23:59:35.462Z,99236.75
